Perry, New York
Current Conditions -  °F | °C
As of 10:54 PM on Tuesday 21 Oct 2014 (Local Time) from KDSV Reporting Station
Overcast Overcast  
Wind Chill: 42°   Ceiling: 900
Heat Index: 48°   Visibility: 10mi
Dew Point: 46°   Wind: 15mph
Humidity: 93%   Direction: 320°NW
Pressure: 30.05"   Gusts: NA
Location:  42.72°N, 78.01°W
Report Text: KDSV 220254Z AUTO 32013KT 10SM OVC009 09/08 A3005 RMK AO2 SLP186 T00890078 51027
Loading
Personal Weather Stations






























Interactive Weather Map New forecast layout! Learn more

10-Day Weather Forecast

Advertisements
Track Severe Weather on mobile